createdAt,value
2023-05-23T00:01:32.470Z,101829.63
2023-05-23T00:06:38.932Z,101834.16
2023-05-23T00:11:45.240Z,101823.16
2023-05-23T00:16:49.678Z,101831.59
2023-05-23T00:21:58.748Z,101838.66
2023-05-23T00:27:03.028Z,101826.34
2023-05-23T00:32:07.252Z,101837.16
2023-05-23T00:37:12.938Z,101862.81
2023-05-23T00:42:16.998Z,101863.81
2023-05-23T00:47:21.444Z,101869.78
2023-05-23T00:52:27.280Z,101877.25
2023-05-23T00:57:31.476Z,101880.44
2023-05-23T01:02:39.223Z,101885.59
2023-05-23T01:07:44.835Z,101885.88
2023-05-23T01:13:02.506Z,101886.28
2023-05-23T01:18:17.043Z,101895.41
2023-05-23T01:23:56.173Z,101894.06
2023-05-23T01:29:10.460Z,101900.25
2023-05-23T01:34:17.170Z,101901.81
2023-05-23T01:39:21.287Z,101893.25
2023-05-23T01:44:27.420Z,101895.41
2023-05-23T01:49:37.338Z,101901.41
2023-05-23T01:54:44.015Z,101899.44
2023-05-23T01:59:49.651Z,101898.03
2023-05-23T02:04:57.323Z,101908.81
2023-05-23T02:10:01.752Z,101902.06
2023-05-23T02:15:09.411Z,101929.34
2023-05-23T02:20:14.518Z,101924.41
2023-05-23T02:25:18.701Z,101930.75
2023-05-23T02:30:24.404Z,101925.66
2023-05-23T02:35:28.662Z,101938.06
2023-05-23T02:40:32.788Z,101925.94
2023-05-23T02:45:40.287Z,101936.13
2023-05-23T02:50:44.740Z,101928.97
2023-05-23T02:55:48.857Z,101922.63
2023-05-23T03:00:54.315Z,101916.97
2023-05-23T03:05:58.462Z,101916.03
2023-05-23T03:11:02.734Z,101919.59
2023-05-23T03:16:08.601Z,101931.75
2023-05-23T03:21:12.718Z,101919.59
2023-05-23T03:26:16.916Z,101937.38
2023-05-23T03:31:22.674Z,101932.84
2023-05-23T03:36:28.375Z,101941.94
2023-05-23T03:41:32.852Z,101938.75
2023-05-23T03:46:39.703Z,101934.59
2023-05-23T03:51:44.771Z,101947.69
2023-05-23T03:56:52.882Z,101956.78
2023-05-23T04:01:59.434Z,101958.59
2023-05-23T04:07:05.697Z,101962.19
2023-05-23T04:12:12.010Z,101973.38
2023-05-23T04:17:18.562Z,101967.97
2023-05-23T04:22:23.138Z,101982.88
2023-05-23T04:27:27.378Z,101979.69
2023-05-23T04:32:33.359Z,101979.03
2023-05-23T04:37:37.929Z,101992.22
2023-05-23T04:42:44.689Z,101992.38
2023-05-23T04:48:10.339Z,101995.69
2023-05-23T04:53:23.728Z,102003.69
2023-05-23T04:58:28.099Z,102005.72
2023-05-23T05:03:37.235Z,102014.00
2023-05-23T05:08:41.800Z,102013.28
2023-05-23T05:13:47.621Z,102022.66
2023-05-23T05:18:53.419Z,102034.78
2023-05-23T05:24:00.027Z,102030.06
2023-05-23T05:29:04.512Z,102042.59
2023-05-23T05:34:10.260Z,102051.38
2023-05-23T05:39:15.099Z,102057.56
2023-05-23T05:44:19.734Z,102059.59
2023-05-23T05:49:25.234Z,102070.22
2023-05-23T05:54:29.665Z,102089.19
2023-05-23T05:59:34.097Z,102070.22
2023-05-23T06:04:39.655Z,102079.69
2023-05-23T06:09:44.913Z,102093.16
2023-05-23T06:14:48.986Z,102099.63
2023-05-23T06:19:55.719Z,102093.75
2023-05-23T06:25:00.455Z,102101.75
2023-05-23T06:30:05.360Z,102094.59
2023-05-23T06:35:11.448Z,102104.81
2023-05-23T06:40:15.550Z,102109.91
2023-05-23T06:45:19.946Z,102108.25
2023-05-23T06:50:25.472Z,102117.88
2023-05-23T06:55:32.017Z,102119.16
2023-05-23T07:00:36.309Z,102125.19
2023-05-23T07:05:50.344Z,102139.69
2023-05-23T07:10:57.139Z,102134.63
2023-05-23T07:16:10.343Z,102152.50
2023-05-23T07:21:26.387Z,102148.56
2023-05-23T07:26:30.999Z,102165.78
2023-05-23T07:31:35.503Z,102168.91
2023-05-23T07:36:42.555Z,102159.81
2023-05-23T07:41:50.294Z,102172.28
2023-05-23T07:46:55.937Z,102172.28
2023-05-23T07:52:02.704Z,102178.63
2023-05-23T07:57:10.749Z,102189.94
2023-05-23T08:02:15.997Z,102179.19
2023-05-23T08:07:22.062Z,102182.00
2023-05-23T08:12:33.904Z,102187.44
2023-05-23T08:17:45.418Z,102190.75
2023-05-23T08:22:58.330Z,102177.44
2023-05-23T08:28:03.131Z,102180.47
2023-05-23T08:33:19.213Z,102187.38
2023-05-23T08:38:27.522Z,102180.66
2023-05-23T08:43:49.973Z,102196.94
2023-05-23T08:49:23.040Z,102202.81
2023-05-23T08:54:41.153Z,102207.81
2023-05-23T08:59:46.467Z,102205.41
2023-05-23T09:04:50.906Z,102201.88
2023-05-23T09:10:01.376Z,102207.69
2023-05-23T09:15:07.936Z,102210.16
2023-05-23T09:20:14.824Z,102209.63
2023-05-23T09:25:26.856Z,102209.81
2023-05-23T09:30:36.047Z,102215.34
2023-05-23T09:35:46.481Z,102226.13
2023-05-23T09:40:54.933Z,102218.56
2023-05-23T09:46:02.742Z,102204.00
2023-05-23T09:51:07.762Z,102200.59
2023-05-23T09:56:15.552Z,102199.38
2023-05-23T10:01:20.316Z,102213.84
2023-05-23T10:06:28.302Z,102211.47
2023-05-23T10:12:37.039Z,102209.13
2023-05-23T10:18:03.861Z,102210.31
2023-05-23T10:23:08.547Z,102202.78
2023-05-23T10:28:15.079Z,102214.66
2023-05-23T10:33:19.554Z,102203.88
2023-05-23T10:38:36.073Z,102191.78
2023-05-23T10:43:50.797Z,102200.81
2023-05-23T10:48:58.424Z,102208.88
2023-05-23T10:54:04.471Z,102194.06
2023-05-23T10:59:11.370Z,102225.78
2023-05-23T11:04:15.786Z,102201.75
2023-05-23T11:09:22.072Z,102185.13
2023-05-23T11:14:56.213Z,102187.53
2023-05-23T11:20:06.526Z,102196.38
2023-05-23T11:25:12.651Z,102192.66
2023-05-23T11:30:19.643Z,102192.59
2023-05-23T11:35:24.142Z,102202.38
2023-05-23T11:40:33.075Z,102189.84
2023-05-23T11:45:40.407Z,102197.16
2023-05-23T11:50:49.440Z,102199.66
2023-05-23T11:55:56.528Z,102181.53
2023-05-23T12:01:03.280Z,102194.69
2023-05-23T12:06:07.552Z,102207.66
2023-05-23T12:11:11.949Z,102208.69
2023-05-23T12:16:17.614Z,102207.66
2023-05-23T12:21:22.085Z,102197.38
2023-05-23T12:26:26.868Z,102201.22
2023-05-23T12:31:32.526Z,102216.22
2023-05-23T12:36:48.010Z,102210.63
2023-05-23T12:41:53.442Z,102215.88
2023-05-23T12:47:00.028Z,102212.06
2023-05-23T12:52:05.714Z,102216.97
2023-05-23T12:57:13.407Z,102214.09
2023-05-23T13:02:20.006Z,102218.59
2023-05-23T13:07:25.032Z,102233.91
2023-05-23T13:12:30.964Z,102206.63
2023-05-23T13:17:37.108Z,102210.00
2023-05-23T13:22:42.146Z,102213.25
2023-05-23T13:27:48.882Z,102210.84
2023-05-23T13:32:55.790Z,102209.81
2023-05-23T13:38:00.294Z,102217.38
2023-05-23T13:43:04.938Z,102210.34
2023-05-23T13:48:11.266Z,102204.28
2023-05-23T13:53:17.037Z,102208.97
2023-05-23T13:58:21.488Z,102217.22
2023-05-23T14:03:28.254Z,102200.09
2023-05-23T14:08:33.942Z,102206.38
2023-05-23T14:13:38.423Z,102212.66
2023-05-23T14:18:45.286Z,102202.94
2023-05-23T14:23:59.045Z,102208.25
2023-05-23T14:29:04.168Z,102209.69
2023-05-23T14:34:10.221Z,102207.00
2023-05-23T14:39:16.134Z,102209.94
2023-05-23T14:44:20.695Z,102204.94
2023-05-23T14:49:27.168Z,102202.88
2023-05-23T14:54:31.913Z,102198.25
2023-05-23T14:59:36.868Z,102200.66
2023-05-23T15:04:42.860Z,102213.19
2023-05-23T15:09:47.862Z,102205.69
2023-05-23T15:14:52.082Z,102201.47
2023-05-23T15:19:58.079Z,102189.03
2023-05-23T15:25:02.374Z,102187.13
2023-05-23T15:30:10.005Z,102205.25
2023-05-23T15:35:17.141Z,102211.13
2023-05-23T15:40:24.089Z,102210.38
2023-05-23T15:45:28.780Z,102225.19
2023-05-23T15:50:34.985Z,102226.63
2023-05-23T15:55:42.052Z,102222.22
2023-05-23T16:00:47.491Z,102231.03
2023-05-23T16:05:54.920Z,102218.91
2023-05-23T16:10:59.418Z,102224.63
2023-05-23T16:16:05.200Z,102230.84
2023-05-23T16:21:11.197Z,102231.13
2023-05-23T16:26:16.252Z,102233.66
2023-05-23T16:31:27.465Z,102236.19
2023-05-23T16:36:33.992Z,102232.19
2023-05-23T16:41:38.139Z,102240.06
2023-05-23T16:46:42.979Z,102239.66
2023-05-23T16:51:50.190Z,102223.91
2023-05-23T16:56:54.570Z,102227.13
2023-05-23T17:01:59.130Z,102225.88
2023-05-23T17:07:05.874Z,102232.53
2023-05-23T17:12:10.703Z,102226.75
2023-05-23T17:17:15.873Z,102233.28
2023-05-23T17:22:24.072Z,102229.00
2023-05-23T17:27:28.960Z,102244.22
2023-05-23T17:32:33.395Z,102237.47
2023-05-23T17:37:43.865Z,102228.66
2023-05-23T17:42:48.725Z,102245.22
2023-05-23T17:47:55.908Z,102248.63
2023-05-23T17:53:04.102Z,102241.59
2023-05-23T17:58:09.850Z,102257.06
2023-05-23T18:03:15.441Z,102262.28
2023-05-23T18:08:21.536Z,102274.41
2023-05-23T18:13:26.489Z,102275.75
2023-05-23T18:18:33.116Z,102278.00
2023-05-23T18:23:39.278Z,102283.47
2023-05-23T18:28:45.483Z,102279.72
2023-05-23T18:33:51.891Z,102276.94
2023-05-23T18:38:58.296Z,102278.44
2023-05-23T18:44:05.115Z,102281.44
2023-05-23T18:49:09.287Z,102285.56
2023-05-23T18:54:24.091Z,102283.72
2023-05-23T18:59:28.374Z,102296.78
2023-05-23T19:04:34.032Z,102297.84
2023-05-23T19:09:39.854Z,102307.47
2023-05-23T19:14:44.744Z,102305.59
2023-05-23T19:19:49.205Z,102318.38
2023-05-23T19:24:55.704Z,102339.38
2023-05-23T19:30:00.459Z,102336.56
2023-05-23T19:35:09.817Z,102338.03
2023-05-23T19:40:17.406Z,102348.97
2023-05-23T19:45:22.195Z,102349.47
2023-05-23T19:50:34.185Z,102367.56
2023-05-23T19:55:40.112Z,102369.16
2023-05-23T20:00:47.457Z,102369.63
2023-05-23T20:05:51.774Z,102388.19
2023-05-23T20:10:59.558Z,102383.59
2023-05-23T20:16:05.677Z,102390.16
2023-05-23T20:21:10.128Z,102403.69
2023-05-23T20:26:16.117Z,102403.56
2023-05-23T20:31:20.324Z,102408.44
2023-05-23T20:36:25.298Z,102414.88
2023-05-23T20:41:31.181Z,102398.00
2023-05-23T20:46:36.852Z,102410.50
2023-05-23T20:51:41.659Z,102410.00
2023-05-23T20:56:52.770Z,102398.91
2023-05-23T21:01:57.295Z,102402.72
2023-05-23T21:07:02.706Z,102396.91
2023-05-23T21:12:08.898Z,102399.84
2023-05-23T21:17:13.743Z,102396.06
2023-05-23T21:22:18.668Z,102399.97
2023-05-23T21:27:24.742Z,102413.28
2023-05-23T21:32:29.424Z,102415.38
2023-05-23T21:37:36.514Z,102410.53
2023-05-23T21:42:43.092Z,102417.88
2023-05-23T21:47:47.585Z,102417.28
2023-05-23T21:52:52.493Z,102414.16
2023-05-23T21:57:58.271Z,102418.19
2023-05-23T22:03:02.684Z,102411.53
2023-05-23T22:08:08.037Z,102406.75
2023-05-23T22:13:13.597Z,102406.47
2023-05-23T22:18:18.264Z,102413.59
2023-05-23T22:23:22.840Z,102428.78
2023-05-23T22:28:28.484Z,102412.59
2023-05-23T22:33:32.515Z,102419.72
2023-05-23T22:38:37.618Z,102425.38
2023-05-23T22:43:43.288Z,102412.75
2023-05-23T22:48:47.362Z,102408.81
2023-05-23T22:53:51.458Z,102412.59
2023-05-23T22:58:56.926Z,102416.38
2023-05-23T23:04:01.017Z,102407.94
2023-05-23T23:09:05.669Z,102410.03
2023-05-23T23:14:11.340Z,102419.13
2023-05-23T23:19:15.522Z,102422.06
2023-05-23T23:24:19.532Z,102419.91
2023-05-23T23:29:24.962Z,102418.56
2023-05-23T23:34:29.135Z,102419.59
2023-05-23T23:39:33.323Z,102412.25
2023-05-23T23:44:38.643Z,102419.44
2023-05-23T23:49:42.848Z,102429.22
2023-05-23T23:54:46.920Z,102427.78
2023-05-23T23:59:52.387Z,102427.28
